createdAt,value
2018-03-23T00:01:36.155Z,61.13
2018-03-23T00:04:02.640Z,61.09
2018-03-23T00:06:29.198Z,61.07
2018-03-23T00:08:55.755Z,61.10
2018-03-23T00:11:22.334Z,61.09
2018-03-23T00:13:49.017Z,61.10
2018-03-23T00:16:15.543Z,61.11
2018-03-23T00:18:42.123Z,61.11
2018-03-23T00:21:08.662Z,61.11
2018-03-23T00:23:35.217Z,61.11
2018-03-23T00:26:01.783Z,61.09
2018-03-23T00:28:28.551Z,61.06
2018-03-23T00:30:55.366Z,61.07
2018-03-23T00:33:22.694Z,61.08
2018-03-23T00:35:49.270Z,61.09
2018-03-23T00:38:16.091Z,61.07
2018-03-23T00:40:42.687Z,61.10
2018-03-23T00:43:09.355Z,61.06
2018-03-23T00:45:35.895Z,61.06
2018-03-23T00:48:02.491Z,61.08
2018-03-23T00:50:33.380Z,61.07
2018-03-23T00:53:00.002Z,61.07
2018-03-23T00:55:26.577Z,61.05
2018-03-23T00:57:53.395Z,61.05
2018-03-23T01:00:20.157Z,61.05
2018-03-23T01:02:46.757Z,61.03
2018-03-23T01:05:13.303Z,61.04
2018-03-23T01:07:39.870Z,60.99
2018-03-23T01:10:06.427Z,60.98
2018-03-23T01:12:33.028Z,60.96
2018-03-23T01:15:00.383Z,60.95
2018-03-23T01:17:26.944Z,60.97
2018-03-23T01:19:53.500Z,60.95
2018-03-23T01:22:19.958Z,60.98
2018-03-23T01:24:46.839Z,60.98
2018-03-23T01:27:13.402Z,60.95
2018-03-23T01:29:39.925Z,60.91
2018-03-23T01:32:06.499Z,60.94
2018-03-23T01:34:32.948Z,60.92
2018-03-23T01:36:59.420Z,60.95
2018-03-23T01:39:25.924Z,60.92
2018-03-23T01:41:52.550Z,60.95
2018-03-23T01:44:19.029Z,60.92
2018-03-23T01:46:45.585Z,60.89
2018-03-23T01:49:12.142Z,60.91
2018-03-23T01:51:38.604Z,60.89
2018-03-23T01:54:05.157Z,60.91
2018-03-23T01:56:31.704Z,60.86
2018-03-23T01:58:58.245Z,60.90
2018-03-23T02:01:24.732Z,60.88
2018-03-23T02:03:51.180Z,60.88
2018-03-23T02:06:17.643Z,60.86
2018-03-23T02:08:44.172Z,60.91
2018-03-23T02:11:10.629Z,60.86
2018-03-23T02:13:37.095Z,60.85
2018-03-23T02:16:03.567Z,60.82
2018-03-23T02:18:30.015Z,60.80
2018-03-23T02:20:56.471Z,60.77
2018-03-23T02:23:22.978Z,60.80
2018-03-23T02:25:49.445Z,60.81
2018-03-23T02:28:15.910Z,60.81
2018-03-23T02:30:43.152Z,60.82
2018-03-23T02:33:09.616Z,60.81
2018-03-23T02:35:36.130Z,60.77
2018-03-23T02:38:02.603Z,60.77
2018-03-23T02:40:29.068Z,60.79
2018-03-23T02:42:55.530Z,60.77
2018-03-23T02:45:22.000Z,60.81
2018-03-23T02:47:48.495Z,60.78
2018-03-23T02:50:15.714Z,60.76
2018-03-23T02:52:42.161Z,60.76
2018-03-23T02:55:08.662Z,60.77
2018-03-23T02:57:35.126Z,60.81
2018-03-23T03:00:01.594Z,60.78
2018-03-23T03:02:28.069Z,60.76
2018-03-23T03:04:55.351Z,60.80
2018-03-23T03:07:22.584Z,60.77
2018-03-23T03:09:49.036Z,60.77
2018-03-23T03:12:15.483Z,60.77
2018-03-23T03:14:41.925Z,60.76
2018-03-23T03:17:08.384Z,60.76
2018-03-23T03:19:34.866Z,60.80
2018-03-23T03:22:01.337Z,60.80
2018-03-23T03:24:27.809Z,60.75
2018-03-23T03:26:54.262Z,60.75
2018-03-23T03:29:20.729Z,60.75
2018-03-23T03:31:47.183Z,60.72
2018-03-23T03:34:13.651Z,60.71
2018-03-23T03:36:40.114Z,60.72
2018-03-23T03:39:07.327Z,60.71
2018-03-23T03:41:33.787Z,60.69
2018-03-23T03:44:00.233Z,60.70
2018-03-23T03:46:26.712Z,60.69
2018-03-23T03:48:53.189Z,60.71
2018-03-23T03:51:19.662Z,60.70
2018-03-23T03:53:46.125Z,60.67
2018-03-23T03:56:12.606Z,60.63
2018-03-23T03:58:39.839Z,60.64
2018-03-23T04:01:06.296Z,60.62
2018-03-23T04:03:32.803Z,60.61
2018-03-23T04:06:00.731Z,60.62
2018-03-23T04:08:27.238Z,60.60
2018-03-23T04:10:54.482Z,60.62
2018-03-23T04:13:20.957Z,60.61
2018-03-23T04:15:47.476Z,60.64
2018-03-23T04:18:13.924Z,60.59
2018-03-23T04:20:40.406Z,60.61
2018-03-23T04:23:06.878Z,60.61
2018-03-23T04:25:33.354Z,60.62
2018-03-23T04:27:59.810Z,60.60
2018-03-23T04:30:26.271Z,60.59
2018-03-23T04:32:52.760Z,60.54
2018-03-23T04:35:20.002Z,60.52
2018-03-23T04:37:46.484Z,60.52
2018-03-23T04:40:12.930Z,60.54
2018-03-23T04:42:39.383Z,60.49
2018-03-23T04:45:05.836Z,60.48
2018-03-23T04:47:32.311Z,60.46
2018-03-23T04:49:58.811Z,60.46
2018-03-23T04:52:25.257Z,60.49
2018-03-23T04:54:51.742Z,60.48
2018-03-23T04:57:18.199Z,60.47
2018-03-23T04:59:44.669Z,60.49
2018-03-23T05:02:11.151Z,60.54
2018-03-23T05:04:37.667Z,60.54
2018-03-23T05:07:04.124Z,60.59
2018-03-23T05:09:30.586Z,60.63
2018-03-23T05:11:57.084Z,60.64
2018-03-23T05:14:23.560Z,60.63
2018-03-23T05:16:50.039Z,60.70
2018-03-23T05:19:16.498Z,60.70
2018-03-23T05:21:42.987Z,60.73
2018-03-23T05:24:09.462Z,60.80
2018-03-23T05:26:35.968Z,60.83
2018-03-23T05:29:02.421Z,60.84
2018-03-23T05:31:29.701Z,60.85
2018-03-23T05:33:56.951Z,60.79
2018-03-23T05:36:23.414Z,60.42
2018-03-23T05:38:49.879Z,60.37
2018-03-23T05:41:19.859Z,60.37
2018-03-23T05:43:46.338Z,60.36
2018-03-23T05:46:12.889Z,60.31
2018-03-23T05:48:40.095Z,60.31
2018-03-23T05:51:06.556Z,60.25
2018-03-23T05:53:33.048Z,60.24
2018-03-23T05:56:00.269Z,60.20
2018-03-23T05:58:26.766Z,60.23
2018-03-23T06:00:53.976Z,60.18
2018-03-23T06:03:20.435Z,60.13
2018-03-23T06:05:46.899Z,60.20
2018-03-23T06:08:13.351Z,60.21
2018-03-23T06:10:39.898Z,60.16
2018-03-23T06:13:06.378Z,60.12
2018-03-23T06:15:32.871Z,60.13
2018-03-23T06:17:59.349Z,59.15
2018-03-23T06:20:25.827Z,60.61
2018-03-23T06:22:53.051Z,60.17
2018-03-23T06:25:19.519Z,60.17
2018-03-23T06:27:45.981Z,60.05
2018-03-23T06:30:12.456Z,60.04
2018-03-23T06:32:38.955Z,60.07
2018-03-23T06:35:05.430Z,60.15
2018-03-23T06:37:31.917Z,60.24
2018-03-23T06:39:58.380Z,60.27
2018-03-23T06:42:24.849Z,60.26
2018-03-23T06:44:51.327Z,60.24
2018-03-23T06:47:18.547Z,60.25
2018-03-23T06:49:45.052Z,60.24
2018-03-23T06:52:11.505Z,60.24
2018-03-23T06:54:37.995Z,60.23
2018-03-23T06:57:05.213Z,60.22
2018-03-23T06:59:31.693Z,60.20
2018-03-23T07:01:58.152Z,60.24
2018-03-23T07:04:24.612Z,60.25
2018-03-23T07:06:51.074Z,60.28
2018-03-23T07:09:17.542Z,60.28
2018-03-23T07:11:44.791Z,60.28
2018-03-23T07:14:11.275Z,60.27
2018-03-23T07:16:38.577Z,60.30
2018-03-23T07:19:05.054Z,60.34
2018-03-23T07:21:31.509Z,60.29
2018-03-23T07:23:57.961Z,60.29
2018-03-23T07:26:24.421Z,60.30
2018-03-23T07:28:50.928Z,60.30
2018-03-23T07:31:18.195Z,60.34
2018-03-23T07:33:44.676Z,60.18
2018-03-23T07:36:11.143Z,60.16
2018-03-23T07:38:38.404Z,60.19
2018-03-23T07:41:04.886Z,60.24
2018-03-23T07:43:32.101Z,60.25
2018-03-23T07:45:58.572Z,60.24
2018-03-23T07:48:25.026Z,60.24
2018-03-23T07:50:51.520Z,60.22
2018-03-23T07:53:17.988Z,60.22
2018-03-23T07:55:45.265Z,57.96
2018-03-23T07:58:11.717Z,58.47
2018-03-23T08:00:38.179Z,58.95
2018-03-23T08:03:05.473Z,58.71
2018-03-23T08:05:32.719Z,57.97
2018-03-23T08:07:59.205Z,59.85
2018-03-23T08:10:26.442Z,59.38
2018-03-23T08:12:52.915Z,59.27
2018-03-23T08:15:19.362Z,59.22
2018-03-23T08:17:45.848Z,59.29
2018-03-23T08:20:13.093Z,59.39
2018-03-23T08:22:39.566Z,59.50
2018-03-23T08:25:06.019Z,59.55
2018-03-23T08:27:32.468Z,59.53
2018-03-23T08:29:58.962Z,59.57
2018-03-23T08:32:26.193Z,59.62
2018-03-23T08:34:52.717Z,59.62
2018-03-23T08:37:19.201Z,59.67
2018-03-23T08:39:45.682Z,58.94
2018-03-23T08:42:12.148Z,59.51
2018-03-23T08:44:38.662Z,59.60
2018-03-23T08:47:05.889Z,59.65
2018-03-23T08:49:32.339Z,59.75
2018-03-23T08:51:58.827Z,59.78
2018-03-23T08:54:26.055Z,59.85
2018-03-23T08:56:52.537Z,59.88
2018-03-23T08:59:18.998Z,59.91
2018-03-23T09:01:45.459Z,59.99
2018-03-23T09:04:11.938Z,60.05
2018-03-23T09:06:39.162Z,60.05
2018-03-23T09:09:05.665Z,60.06
2018-03-23T09:11:32.124Z,60.11
2018-03-23T09:13:58.587Z,60.14
2018-03-23T09:16:25.814Z,60.21
2018-03-23T09:18:52.262Z,60.19
2018-03-23T09:21:18.705Z,60.23
2018-03-23T09:23:45.177Z,60.25
2018-03-23T09:26:11.662Z,60.23
2018-03-23T09:28:38.120Z,60.27
2018-03-23T09:31:04.566Z,60.31
2018-03-23T09:33:31.034Z,60.33
2018-03-23T09:35:57.519Z,60.33
2018-03-23T09:38:24.015Z,60.35
2018-03-23T09:40:50.489Z,60.34
2018-03-23T09:43:16.948Z,58.64
2018-03-23T09:45:43.412Z,59.10
2018-03-23T09:48:09.890Z,59.15
2018-03-23T09:50:36.336Z,59.37
2018-03-23T09:53:02.796Z,59.20
2018-03-23T09:55:29.253Z,58.46
2018-03-23T09:57:55.701Z,58.56
2018-03-23T10:00:22.174Z,58.36
2018-03-23T10:02:48.634Z,58.18
2018-03-23T10:05:15.123Z,58.08
2018-03-23T10:07:42.352Z,58.14
2018-03-23T10:10:08.828Z,58.12
2018-03-23T10:12:35.308Z,58.14
2018-03-23T10:15:01.765Z,58.13
2018-03-23T10:17:28.240Z,58.12
2018-03-23T10:19:55.460Z,58.04
2018-03-23T10:22:21.936Z,58.06
2018-03-23T10:24:48.400Z,57.98
2018-03-23T10:27:14.865Z,58.06
2018-03-23T10:29:41.310Z,58.18
2018-03-23T10:32:07.757Z,58.23
2018-03-23T10:34:34.274Z,58.29
2018-03-23T10:37:01.490Z,58.29
2018-03-23T10:39:27.966Z,58.27
2018-03-23T10:41:54.428Z,58.21
2018-03-23T10:44:20.908Z,58.21
2018-03-23T10:46:48.160Z,58.29
2018-03-23T10:49:15.420Z,58.30
2018-03-23T10:51:41.916Z,58.29
2018-03-23T10:54:08.405Z,58.29
2018-03-23T10:56:34.905Z,58.32
2018-03-23T10:59:01.375Z,58.08
2018-03-23T11:01:27.852Z,58.13
2018-03-23T11:03:54.304Z,58.14
2018-03-23T11:06:20.750Z,58.08
2018-03-23T11:08:47.198Z,58.05
2018-03-23T11:11:13.655Z,58.05
2018-03-23T11:13:40.134Z,58.01
2018-03-23T11:16:06.604Z,58.04
2018-03-23T11:18:33.886Z,57.88
2018-03-23T11:21:00.393Z,57.80
2018-03-23T11:23:26.860Z,57.90
2018-03-23T11:25:53.357Z,57.73
2018-03-23T11:28:20.577Z,58.00
2018-03-23T11:30:47.047Z,57.81
2018-03-23T11:33:13.504Z,57.79
2018-03-23T11:35:39.990Z,57.68
2018-03-23T11:38:06.524Z,57.77
2018-03-23T11:40:33.016Z,57.69
2018-03-23T11:42:59.481Z,57.57
2018-03-23T11:45:25.959Z,57.48
2018-03-23T11:47:53.186Z,57.55
2018-03-23T11:50:19.644Z,57.59
2018-03-23T11:52:46.123Z,57.49
2018-03-23T11:55:12.579Z,57.50
2018-03-23T11:57:39.090Z,57.47
2018-03-23T12:00:05.537Z,56.57
2018-03-23T12:02:32.003Z,55.34
2018-03-23T12:04:58.453Z,54.76
2018-03-23T12:07:24.954Z,53.75
2018-03-23T12:09:51.428Z,52.48
2018-03-23T12:12:17.935Z,52.74
2018-03-23T12:14:44.428Z,52.58
2018-03-23T12:17:10.908Z,52.24
2018-03-23T12:19:37.372Z,52.34
2018-03-23T12:22:03.809Z,52.47
2018-03-23T12:24:30.253Z,52.62
2018-03-23T12:26:56.711Z,53.81
2018-03-23T12:29:23.179Z,53.90
2018-03-23T12:31:49.676Z,54.33
2018-03-23T12:34:16.130Z,54.33
2018-03-23T12:36:42.648Z,54.60
2018-03-23T12:39:09.269Z,54.93
2018-03-23T12:41:36.500Z,55.43
2018-03-23T12:44:02.951Z,54.89
2018-03-23T12:46:29.422Z,54.81
2018-03-23T12:48:55.889Z,54.84
2018-03-23T12:51:22.376Z,55.26
2018-03-23T12:53:49.647Z,55.31
2018-03-23T12:56:16.181Z,55.15
2018-03-23T12:58:42.685Z,55.32
2018-03-23T13:01:09.146Z,55.34
2018-03-23T13:03:36.359Z,55.56
2018-03-23T13:06:02.893Z,55.63
2018-03-23T13:08:30.109Z,56.85
2018-03-23T13:10:56.901Z,55.33
2018-03-23T13:13:24.466Z,55.46
2018-03-23T13:15:50.994Z,55.62
2018-03-23T13:18:17.752Z,55.59
2018-03-23T13:20:44.918Z,55.89
2018-03-23T13:23:17.509Z,56.00
2018-03-23T13:25:44.806Z,55.85
2018-03-23T13:28:12.118Z,56.03
2018-03-23T13:30:39.310Z,55.96
2018-03-23T13:33:06.701Z,56.06
2018-03-23T13:35:33.761Z,56.26
2018-03-23T13:38:01.897Z,56.17
2018-03-23T13:40:29.256Z,55.98
2018-03-23T13:42:56.473Z,56.14
2018-03-23T13:45:23.873Z,56.16
2018-03-23T13:47:51.280Z,55.22
2018-03-23T13:50:18.701Z,55.27
2018-03-23T13:52:46.013Z,55.36
2018-03-23T13:55:13.709Z,55.41
2018-03-23T13:57:41.367Z,55.48
2018-03-23T14:00:08.858Z,55.54
2018-03-23T14:02:36.355Z,55.76
2018-03-23T14:05:03.726Z,55.62
2018-03-23T14:07:31.318Z,55.90
2018-03-23T14:10:00.347Z,55.89
2018-03-23T14:12:27.820Z,56.01
2018-03-23T14:14:55.060Z,55.94
2018-03-23T14:17:22.491Z,55.97
2018-03-23T14:19:50.161Z,56.12
2018-03-23T14:22:18.692Z,55.96
2018-03-23T14:24:47.236Z,56.19
2018-03-23T14:27:14.708Z,56.05
2018-03-23T14:29:42.307Z,56.97
2018-03-23T14:32:09.749Z,56.50
2018-03-23T14:34:38.005Z,56.82
2018-03-23T14:37:06.312Z,56.60
2018-03-23T14:39:34.130Z,56.44
2018-03-23T14:42:01.615Z,56.52
2018-03-23T14:44:28.933Z,57.73
2018-03-23T14:46:56.628Z,56.60
2018-03-23T14:49:25.124Z,57.83
2018-03-23T14:51:52.489Z,56.92
2018-03-23T14:54:19.819Z,57.84
2018-03-23T14:56:46.976Z,57.16
2018-03-23T14:59:15.242Z,56.70
2018-03-23T15:01:42.597Z,56.61
2018-03-23T15:04:10.945Z,56.83
2018-03-23T15:06:38.590Z,56.74
2018-03-23T15:09:06.019Z,55.92
2018-03-23T15:11:33.598Z,54.51
2018-03-23T15:14:01.792Z,55.14
2018-03-23T15:16:29.111Z,56.40
2018-03-23T15:18:57.555Z,55.84
2018-03-23T15:21:25.040Z,56.09
2018-03-23T15:23:52.534Z,55.59
2018-03-23T15:26:20.335Z,55.71
2018-03-23T15:28:47.593Z,56.15
2018-03-23T15:31:14.694Z,54.76
2018-03-23T15:33:42.739Z,55.42
2018-03-23T15:36:09.803Z,55.45
2018-03-23T15:38:36.903Z,55.56
2018-03-23T15:41:03.935Z,55.63
2018-03-23T15:43:30.981Z,55.60
2018-03-23T15:45:58.978Z,56.02
2018-03-23T15:48:26.741Z,55.53
2018-03-23T15:50:53.819Z,55.49
2018-03-23T15:53:20.872Z,55.37
2018-03-23T15:55:47.929Z,55.31
2018-03-23T15:58:15.026Z,54.96
2018-03-23T16:00:42.140Z,55.67
2018-03-23T16:03:10.102Z,55.34
2018-03-23T16:05:37.203Z,55.50
2018-03-23T16:08:04.361Z,55.28
2018-03-23T16:10:32.210Z,55.31
2018-03-23T16:12:59.327Z,55.07
2018-03-23T16:15:27.042Z,54.78
2018-03-23T16:17:54.870Z,54.96
2018-03-23T16:20:22.102Z,55.35
2018-03-23T16:22:49.222Z,54.86
2018-03-23T16:25:16.437Z,53.23
2018-03-23T16:27:43.624Z,54.07
2018-03-23T16:30:11.489Z,54.03
2018-03-23T16:32:38.533Z,54.04
2018-03-23T16:35:05.583Z,54.26
2018-03-23T16:37:33.489Z,54.14
2018-03-23T16:40:01.307Z,54.28
2018-03-23T16:42:28.572Z,54.34
2018-03-23T16:44:55.623Z,54.51
2018-03-23T16:47:22.574Z,54.66
2018-03-23T16:49:49.666Z,54.51
2018-03-23T16:52:16.648Z,54.57
2018-03-23T16:54:43.606Z,54.68
2018-03-23T16:57:10.653Z,54.72
2018-03-23T16:59:38.541Z,54.82
2018-03-23T17:02:05.433Z,54.88
2018-03-23T17:04:32.534Z,54.79
2018-03-23T17:06:59.741Z,54.95
2018-03-23T17:09:27.646Z,55.06
2018-03-23T17:11:54.699Z,55.08
2018-03-23T17:14:21.803Z,55.17
2018-03-23T17:16:49.810Z,55.26
2018-03-23T17:19:16.929Z,55.43
2018-03-23T17:21:44.045Z,55.42
2018-03-23T17:24:11.098Z,55.61
2018-03-23T17:26:38.188Z,55.59
2018-03-23T17:29:05.276Z,55.67
2018-03-23T17:31:32.370Z,55.88
2018-03-23T17:33:59.564Z,55.75
2018-03-23T17:36:26.625Z,55.93
2018-03-23T17:38:53.929Z,55.82
2018-03-23T17:41:21.036Z,55.89
2018-03-23T17:43:49.045Z,55.93
2018-03-23T17:46:16.174Z,55.90
2018-03-23T17:48:43.267Z,56.01
2018-03-23T17:51:10.386Z,56.18
2018-03-23T17:53:37.462Z,56.11
2018-03-23T17:56:04.619Z,56.25
2018-03-23T17:58:32.475Z,56.36
2018-03-23T18:00:59.673Z,56.45
2018-03-23T18:03:27.562Z,56.41
2018-03-23T18:05:54.782Z,56.50
2018-03-23T18:08:21.875Z,56.40
2018-03-23T18:10:48.922Z,56.48
2018-03-23T18:13:16.166Z,56.54
2018-03-23T18:15:44.063Z,56.63
2018-03-23T18:18:12.033Z,56.65
2018-03-23T18:20:39.134Z,56.81
2018-03-23T18:23:06.998Z,56.91
2018-03-23T18:25:34.127Z,56.75
2018-03-23T18:28:01.199Z,56.80
2018-03-23T18:30:28.289Z,56.82
2018-03-23T18:32:55.395Z,56.90
2018-03-23T18:35:22.568Z,56.88
2018-03-23T18:37:49.692Z,57.02
2018-03-23T18:40:16.802Z,57.07
2018-03-23T18:42:43.848Z,56.83
2018-03-23T18:45:11.052Z,57.03
2018-03-23T18:47:38.792Z,56.73
2018-03-23T18:50:11.500Z,56.78
2018-03-23T18:52:38.658Z,56.81
2018-03-23T18:55:06.557Z,56.74
2018-03-23T18:57:33.660Z,56.79
2018-03-23T19:00:00.790Z,56.68
2018-03-23T19:02:28.642Z,56.44
2018-03-23T19:04:56.675Z,56.46
2018-03-23T19:07:23.804Z,56.33
2018-03-23T19:09:50.896Z,56.39
2018-03-23T19:12:17.990Z,56.29
2018-03-23T19:14:45.298Z,56.24
2018-03-23T19:17:12.410Z,56.17
2018-03-23T19:19:39.597Z,56.19
2018-03-23T19:22:06.645Z,55.92
2018-03-23T19:24:33.746Z,56.01
2018-03-23T19:27:00.841Z,54.32
2018-03-23T19:29:27.955Z,54.87
2018-03-23T19:31:55.072Z,56.83
2018-03-23T19:34:22.214Z,56.71
2018-03-23T19:36:49.490Z,56.95
2018-03-23T19:39:16.617Z,57.08
2018-03-23T19:41:44.660Z,57.13
2018-03-23T19:44:11.775Z,57.22
2018-03-23T19:46:39.005Z,57.36
2018-03-23T19:49:06.137Z,57.42
2018-03-23T19:51:34.026Z,57.48
2018-03-23T19:54:01.132Z,57.57
2018-03-23T19:56:28.252Z,57.67
2018-03-23T19:58:55.378Z,57.71
2018-03-23T20:01:22.501Z,57.81
2018-03-23T20:03:49.692Z,57.86
2018-03-23T20:06:16.770Z,57.99
2018-03-23T20:08:43.987Z,58.04
2018-03-23T20:11:11.124Z,58.14
2018-03-23T20:13:38.337Z,58.15
2018-03-23T20:16:05.463Z,58.21
2018-03-23T20:18:32.589Z,58.29
2018-03-23T20:20:59.694Z,58.38
2018-03-23T20:23:26.829Z,58.42
2018-03-23T20:25:53.947Z,58.47
2018-03-23T20:28:21.038Z,58.53
2018-03-23T20:30:48.208Z,58.52
2018-03-23T20:33:15.325Z,58.61
2018-03-23T20:35:42.713Z,58.64
2018-03-23T20:38:09.820Z,58.68
2018-03-23T20:40:36.967Z,58.68
2018-03-23T20:43:04.078Z,58.81
2018-03-23T20:45:31.188Z,58.77
2018-03-23T20:47:58.408Z,58.82
2018-03-23T20:50:25.650Z,58.83
2018-03-23T20:52:52.899Z,58.88
2018-03-23T20:55:20.055Z,58.88
2018-03-23T20:57:47.257Z,58.91
2018-03-23T21:00:15.918Z,58.97
2018-03-23T21:02:42.987Z,58.98
2018-03-23T21:05:10.507Z,59.03
2018-03-23T21:07:38.529Z,59.03
2018-03-23T21:10:06.573Z,59.05
2018-03-23T21:12:33.673Z,59.09
2018-03-23T21:15:00.802Z,59.11
2018-03-23T21:17:27.946Z,59.11
2018-03-23T21:19:55.607Z,59.14
2018-03-23T21:22:23.266Z,59.14
2018-03-23T21:24:50.511Z,59.21
2018-03-23T21:27:18.400Z,58.40
2018-03-23T21:29:45.647Z,59.03
2018-03-23T21:32:12.871Z,58.75
2018-03-23T21:34:39.966Z,58.82
2018-03-23T21:37:07.207Z,58.78
2018-03-23T21:39:35.499Z,58.79
2018-03-23T21:42:02.604Z,58.89
2018-03-23T21:44:30.260Z,58.98
2018-03-23T21:46:57.402Z,59.03
2018-03-23T21:49:24.584Z,59.10
2018-03-23T21:51:51.680Z,59.08
2018-03-23T21:54:18.940Z,59.11
2018-03-23T21:56:46.806Z,59.15
2018-03-23T21:59:13.890Z,59.21
2018-03-23T22:01:40.956Z,59.21
2018-03-23T22:04:08.048Z,59.22
2018-03-23T22:06:35.157Z,59.22
2018-03-23T22:09:02.250Z,59.28
2018-03-23T22:11:29.315Z,59.31
2018-03-23T22:13:56.384Z,59.33
2018-03-23T22:16:23.562Z,59.34
2018-03-23T22:18:50.612Z,59.37
2018-03-23T22:21:18.457Z,59.39
2018-03-23T22:23:45.505Z,59.36
2018-03-23T22:26:12.553Z,59.40
2018-03-23T22:28:39.565Z,59.40
2018-03-23T22:31:06.587Z,59.42
2018-03-23T22:33:33.701Z,59.49
2018-03-23T22:36:00.741Z,59.46
2018-03-23T22:38:28.671Z,59.49
2018-03-23T22:40:55.748Z,59.50
2018-03-23T22:43:22.959Z,59.54
2018-03-23T22:45:50.068Z,59.53
2018-03-23T22:48:17.144Z,59.56
2018-03-23T22:50:44.739Z,59.57
2018-03-23T22:53:11.682Z,59.61
2018-03-23T22:55:39.577Z,59.62
2018-03-23T22:58:07.287Z,59.64
2018-03-23T23:00:34.238Z,59.65
2018-03-23T23:03:01.038Z,59.67
2018-03-23T23:05:28.301Z,59.64
2018-03-23T23:07:54.771Z,59.65
2018-03-23T23:10:21.249Z,59.67
2018-03-23T23:12:47.760Z,59.68
2018-03-23T23:15:14.209Z,59.65
2018-03-23T23:17:40.690Z,59.68
2018-03-23T23:20:07.134Z,59.71
2018-03-23T23:22:33.576Z,59.69
2018-03-23T23:25:00.807Z,59.70
2018-03-23T23:27:27.275Z,59.70
2018-03-23T23:29:53.718Z,59.65
2018-03-23T23:32:20.171Z,59.66
2018-03-23T23:34:46.614Z,59.66
2018-03-23T23:37:13.056Z,59.69
2018-03-23T23:39:39.580Z,59.71
2018-03-23T23:42:06.028Z,59.72
2018-03-23T23:44:32.479Z,59.72
2018-03-23T23:46:58.938Z,59.75
2018-03-23T23:49:25.381Z,59.75
2018-03-23T23:51:51.841Z,59.79
2018-03-23T23:54:18.450Z,59.78
2018-03-23T23:56:45.681Z,59.79
2018-03-23T23:59:12.163Z,59.78
